Weather at Bergen Heliport, Sandviken

Public forecast

Using degrees Celsius for public forecast. Weather courtesy of forecast.io.

Closest aviation weather report (METAR) to Bergen Heliport, Sandviken

Closest report is Bergen Airport, Flesland, 7.6 nm (14.0 km) SSW. Retrieved 2021/10/22 04:20 UTC (0 seconds ago):

ENBR 220420Z 04005KT 350V080 9999 -SHRA FEW010 SCT015CB BKN064 02/01 Q0992 RESHRAGS TEMPO 33018G28KT 4000 SHRAGS BKN012 SCT018CB RMK WIND 1200FT 02010KT

Closest aviation forecast (TAF) to Bergen Heliport, Sandviken

Closest forecast is Bergen Airport, Flesland, 7.6 nm (14.0 km) SSW. Retrieved 2021-10-22 00:57 UTC (3 hours ago):

TAF ENBR 212300Z 2200/2224 33015KT 9999 -SHRA FEW015TCU BKN030 TEMPO 2200/2218 33018G28KT 4000 SHRAGS BKN012 SCT018CB PROB40 TEMPO 2209/2216 33028G40KT